sensor_id;sensor_type;location;lat;lon;timestamp;temperature;humidity
18335;DHT22;9293;49.524;10.964;2023-04-03T00:01:10;4.40;99.90
18335;DHT22;9293;49.524;10.964;2023-04-03T00:03:38;4.40;99.90
18335;DHT22;9293;49.524;10.964;2023-04-03T00:06:07;4.40;99.90
18335;DHT22;9293;49.524;10.964;2023-04-03T00:08:36;4.50;99.90
18335;DHT22;9293;49.524;10.964;2023-04-03T00:11:04;4.40;99.90
18335;DHT22;9293;49.524;10.964;2023-04-03T00:13:33;4.50;99.90
18335;DHT22;9293;49.524;10.964;2023-04-03T00:16:01;4.50;99.90
18335;DHT22;9293;49.524;10.964;2023-04-03T00:18:31;4.50;99.90
18335;DHT22;9293;49.524;10.964;2023-04-03T00:20:59;4.40;99.90
18335;DHT22;9293;49.524;10.964;2023-04-03T00:23:27;4.40;99.90
18335;DHT22;9293;49.524;10.964;2023-04-03T00:25:55;4.40;99.90
18335;DHT22;9293;49.524;10.964;2023-04-03T00:28:23;4.40;99.90
18335;DHT22;9293;49.524;10.964;2023-04-03T00:30:52;4.50;99.90
18335;DHT22;9293;49.524;10.964;2023-04-03T00:33:20;4.40;99.90
18335;DHT22;9293;49.524;10.964;2023-04-03T00:35:49;4.50;99.90
18335;DHT22;9293;49.524;10.964;2023-04-03T00:38:18;4.40;99.90
18335;DHT22;9293;49.524;10.964;2023-04-03T00:40:47;4.40;99.90
18335;DHT22;9293;49.524;10.964;2023-04-03T00:43:19;4.40;99.90
18335;DHT22;9293;49.524;10.964;2023-04-03T00:45:49;4.40;99.90
18335;DHT22;9293;49.524;10.964;2023-04-03T00:48:38;4.40;99.90
18335;DHT22;9293;49.524;10.964;2023-04-03T00:51:09;4.30;99.90
18335;DHT22;9293;49.524;10.964;2023-04-03T00:53:41;4.30;99.90
18335;DHT22;9293;49.524;10.964;2023-04-03T00:56:12;4.30;99.90
18335;DHT22;9293;49.524;10.964;2023-04-03T00:58:48;4.30;99.90
18335;DHT22;9293;49.524;10.964;2023-04-03T01:01:18;4.30;99.90
18335;DHT22;9293;49.524;10.964;2023-04-03T01:03:48;4.20;99.90
18335;DHT22;9293;49.524;10.964;2023-04-03T01:06:17;4.20;99.90
18335;DHT22;9293;49.524;10.964;2023-04-03T01:08:48;4.20;99.90
18335;DHT22;9293;49.524;10.964;2023-04-03T01:11:17;4.10;99.90
18335;DHT22;9293;49.524;10.964;2023-04-03T01:13:45;4.10;99.90
18335;DHT22;9293;49.524;10.964;2023-04-03T01:16:13;4.10;99.90
18335;DHT22;9293;49.524;10.964;2023-04-03T01:18:42;4.00;99.90
18335;DHT22;9293;49.524;10.964;2023-04-03T01:24:04;4.00;99.90
18335;DHT22;9293;49.524;10.964;2023-04-03T01:26:37;4.00;99.90
18335;DHT22;9293;49.524;10.964;2023-04-03T01:29:06;4.00;99.90
18335;DHT22;9293;49.524;10.964;2023-04-03T01:34:02;3.90;99.90
18335;DHT22;9293;49.524;10.964;2023-04-03T01:36:31;3.90;99.90
18335;DHT22;9293;49.524;10.964;2023-04-03T01:39:00;3.90;99.90
18335;DHT22;9293;49.524;10.964;2023-04-03T01:41:28;3.80;99.90
18335;DHT22;9293;49.524;10.964;2023-04-03T01:44:06;3.80;99.90
18335;DHT22;9293;49.524;10.964;2023-04-03T01:46:34;3.80;99.90
18335;DHT22;9293;49.524;10.964;2023-04-03T01:49:03;3.70;99.90
18335;DHT22;9293;49.524;10.964;2023-04-03T01:51:31;3.70;99.90
18335;DHT22;9293;49.524;10.964;2023-04-03T01:54:01;3.70;99.90
18335;DHT22;9293;49.524;10.964;2023-04-03T01:56:29;3.70;99.90
18335;DHT22;9293;49.524;10.964;2023-04-03T01:58:57;3.60;99.90
18335;DHT22;9293;49.524;10.964;2023-04-03T02:01:25;3.60;99.90
18335;DHT22;9293;49.524;10.964;2023-04-03T02:03:54;3.50;99.90
18335;DHT22;9293;49.524;10.964;2023-04-03T02:06:22;3.50;99.90
18335;DHT22;9293;49.524;10.964;2023-04-03T02:08:50;3.40;99.90
18335;DHT22;9293;49.524;10.964;2023-04-03T02:11:18;3.40;99.90
18335;DHT22;9293;49.524;10.964;2023-04-03T02:13:46;3.30;99.90
18335;DHT22;9293;49.524;10.964;2023-04-03T02:16:14;3.30;99.90
18335;DHT22;9293;49.524;10.964;2023-04-03T02:18:43;3.30;99.90
18335;DHT22;9293;49.524;10.964;2023-04-03T02:21:11;3.20;99.90
18335;DHT22;9293;49.524;10.964;2023-04-03T02:23:39;3.20;99.90
18335;DHT22;9293;49.524;10.964;2023-04-03T02:26:09;3.20;99.90
18335;DHT22;9293;49.524;10.964;2023-04-03T02:28:37;3.10;99.90
18335;DHT22;9293;49.524;10.964;2023-04-03T02:31:05;3.10;99.90
18335;DHT22;9293;49.524;10.964;2023-04-03T02:33:38;3.20;99.90
18335;DHT22;9293;49.524;10.964;2023-04-03T02:36:15;3.10;99.90
18335;DHT22;9293;49.524;10.964;2023-04-03T02:38:50;3.10;99.90
18335;DHT22;9293;49.524;10.964;2023-04-03T02:41:18;3.00;99.90
18335;DHT22;9293;49.524;10.964;2023-04-03T02:43:46;3.10;99.90
18335;DHT22;9293;49.524;10.964;2023-04-03T02:46:15;3.00;99.90
18335;DHT22;9293;49.524;10.964;2023-04-03T02:48:46;3.00;99.90
18335;DHT22;9293;49.524;10.964;2023-04-03T02:51:15;3.00;99.90
18335;DHT22;9293;49.524;10.964;2023-04-03T02:53:43;3.00;99.90
18335;DHT22;9293;49.524;10.964;2023-04-03T02:56:16;3.00;99.90
18335;DHT22;9293;49.524;10.964;2023-04-03T02:58:45;2.90;99.90
18335;DHT22;9293;49.524;10.964;2023-04-03T03:01:13;2.90;99.90
18335;DHT22;9293;49.524;10.964;2023-04-03T03:03:41;2.80;99.90
18335;DHT22;9293;49.524;10.964;2023-04-03T03:06:10;2.90;99.90
18335;DHT22;9293;49.524;10.964;2023-04-03T03:08:39;2.80;99.90
18335;DHT22;9293;49.524;10.964;2023-04-03T03:11:07;2.90;99.90
18335;DHT22;9293;49.524;10.964;2023-04-03T03:13:35;2.90;99.90
18335;DHT22;9293;49.524;10.964;2023-04-03T03:16:03;2.90;99.90
18335;DHT22;9293;49.524;10.964;2023-04-03T03:18:32;2.90;99.90
18335;DHT22;9293;49.524;10.964;2023-04-03T03:21:00;3.00;99.90
18335;DHT22;9293;49.524;10.964;2023-04-03T03:23:30;3.00;99.90
18335;DHT22;9293;49.524;10.964;2023-04-03T03:25:59;3.00;99.90
18335;DHT22;9293;49.524;10.964;2023-04-03T03:28:28;3.00;99.90
18335;DHT22;9293;49.524;10.964;2023-04-03T03:30:57;3.00;99.90
18335;DHT22;9293;49.524;10.964;2023-04-03T03:33:25;2.90;99.90
18335;DHT22;9293;49.524;10.964;2023-04-03T03:35:54;2.90;99.90
18335;DHT22;9293;49.524;10.964;2023-04-03T03:38:22;2.90;99.90
18335;DHT22;9293;49.524;10.964;2023-04-03T03:40:51;3.00;99.90
18335;DHT22;9293;49.524;10.964;2023-04-03T03:43:21;2.90;99.90
18335;DHT22;9293;49.524;10.964;2023-04-03T03:45:51;2.90;99.90
18335;DHT22;9293;49.524;10.964;2023-04-03T03:48:22;3.00;99.90
18335;DHT22;9293;49.524;10.964;2023-04-03T03:50:50;3.00;99.90
18335;DHT22;9293;49.524;10.964;2023-04-03T03:53:29;3.00;99.90
18335;DHT22;9293;49.524;10.964;2023-04-03T03:56:03;3.00;99.90
18335;DHT22;9293;49.524;10.964;2023-04-03T03:58:33;3.10;99.90
18335;DHT22;9293;49.524;10.964;2023-04-03T04:01:02;3.10;99.90
18335;DHT22;9293;49.524;10.964;2023-04-03T04:03:32;3.20;99.90
18335;DHT22;9293;49.524;10.964;2023-04-03T04:06:01;3.20;99.90
18335;DHT22;9293;49.524;10.964;2023-04-03T04:08:29;3.20;99.90
18335;DHT22;9293;49.524;10.964;2023-04-03T04:10:58;3.20;99.90
18335;DHT22;9293;49.524;10.964;2023-04-03T04:13:27;3.20;99.90
18335;DHT22;9293;49.524;10.964;2023-04-03T04:15:55;3.30;99.90
18335;DHT22;9293;49.524;10.964;2023-04-03T04:18:23;3.30;99.90
18335;DHT22;9293;49.524;10.964;2023-04-03T04:20:52;3.20;99.90
18335;DHT22;9293;49.524;10.964;2023-04-03T04:23:21;3.30;99.90
18335;DHT22;9293;49.524;10.964;2023-04-03T04:25:50;3.20;99.90
18335;DHT22;9293;49.524;10.964;2023-04-03T04:28:19;3.20;99.90
18335;DHT22;9293;49.524;10.964;2023-04-03T04:30:50;3.20;99.90
18335;DHT22;9293;49.524;10.964;2023-04-03T04:33:21;3.20;99.90
18335;DHT22;9293;49.524;10.964;2023-04-03T04:35:49;3.20;99.90
18335;DHT22;9293;49.524;10.964;2023-04-03T04:38:19;3.20;99.90
18335;DHT22;9293;49.524;10.964;2023-04-03T04:40:50;3.20;99.90
18335;DHT22;9293;49.524;10.964;2023-04-03T04:43:19;3.10;99.90
18335;DHT22;9293;49.524;10.964;2023-04-03T04:45:59;3.10;99.90
18335;DHT22;9293;49.524;10.964;2023-04-03T04:48:35;3.10;99.90
18335;DHT22;9293;49.524;10.964;2023-04-03T04:51:04;3.00;99.90
18335;DHT22;9293;49.524;10.964;2023-04-03T04:53:34;2.90;99.90
18335;DHT22;9293;49.524;10.964;2023-04-03T04:56:04;2.90;99.90
18335;DHT22;9293;49.524;10.964;2023-04-03T04:58:34;2.80;99.90
18335;DHT22;9293;49.524;10.964;2023-04-03T05:01:07;2.80;99.90
18335;DHT22;9293;49.524;10.964;2023-04-03T05:03:41;2.70;99.90
18335;DHT22;9293;49.524;10.964;2023-04-03T05:06:09;2.70;99.90
18335;DHT22;9293;49.524;10.964;2023-04-03T05:08:37;2.70;99.90
18335;DHT22;9293;49.524;10.964;2023-04-03T05:11:07;2.60;99.90
18335;DHT22;9293;49.524;10.964;2023-04-03T05:13:35;2.60;99.90
18335;DHT22;9293;49.524;10.964;2023-04-03T05:16:10;2.60;99.90
18335;DHT22;9293;49.524;10.964;2023-04-03T05:18:39;2.60;99.90
18335;DHT22;9293;49.524;10.964;2023-04-03T05:21:13;2.50;99.90
18335;DHT22;9293;49.524;10.964;2023-04-03T05:23:41;2.50;99.90
18335;DHT22;9293;49.524;10.964;2023-04-03T05:26:10;2.50;99.90
18335;DHT22;9293;49.524;10.964;2023-04-03T05:28:38;2.60;99.90
18335;DHT22;9293;49.524;10.964;2023-04-03T05:31:08;2.60;99.90
18335;DHT22;9293;49.524;10.964;2023-04-03T05:33:37;2.60;99.90
18335;DHT22;9293;49.524;10.964;2023-04-03T05:36:11;2.60;99.90
18335;DHT22;9293;49.524;10.964;2023-04-03T05:38:58;2.70;99.90
18335;DHT22;9293;49.524;10.964;2023-04-03T05:41:26;2.80;99.90
18335;DHT22;9293;49.524;10.964;2023-04-03T05:43:54;2.80;99.90
18335;DHT22;9293;49.524;10.964;2023-04-03T05:46:24;2.90;99.90
18335;DHT22;9293;49.524;10.964;2023-04-03T05:48:55;3.00;99.90
18335;DHT22;9293;49.524;10.964;2023-04-03T05:51:30;3.00;99.90
18335;DHT22;9293;49.524;10.964;2023-04-03T05:54:10;2.90;99.90
18335;DHT22;9293;49.524;10.964;2023-04-03T05:56:41;2.90;99.90
18335;DHT22;9293;49.524;10.964;2023-04-03T05:59:09;2.90;99.90
18335;DHT22;9293;49.524;10.964;2023-04-03T06:01:38;2.90;99.90
18335;DHT22;9293;49.524;10.964;2023-04-03T06:04:07;2.90;99.90
18335;DHT22;9293;49.524;10.964;2023-04-03T06:09:13;2.90;99.90
18335;DHT22;9293;49.524;10.964;2023-04-03T06:11:43;3.00;99.90
18335;DHT22;9293;49.524;10.964;2023-04-03T06:14:14;3.00;99.90
18335;DHT22;9293;49.524;10.964;2023-04-03T06:16:45;3.00;99.90
18335;DHT22;9293;49.524;10.964;2023-04-03T06:19:13;3.10;99.90
18335;DHT22;9293;49.524;10.964;2023-04-03T06:21:46;3.20;99.90
18335;DHT22;9293;49.524;10.964;2023-04-03T06:24:15;3.20;99.90
18335;DHT22;9293;49.524;10.964;2023-04-03T06:26:43;3.30;99.90
18335;DHT22;9293;49.524;10.964;2023-04-03T06:29:12;3.30;99.90
18335;DHT22;9293;49.524;10.964;2023-04-03T06:31:41;3.30;99.90
18335;DHT22;9293;49.524;10.964;2023-04-03T06:34:09;3.30;99.90
18335;DHT22;9293;49.524;10.964;2023-04-03T06:36:39;3.40;99.90
18335;DHT22;9293;49.524;10.964;2023-04-03T06:39:08;3.50;99.90
18335;DHT22;9293;49.524;10.964;2023-04-03T06:41:38;3.50;99.90
18335;DHT22;9293;49.524;10.964;2023-04-03T06:44:06;3.50;99.90
18335;DHT22;9293;49.524;10.964;2023-04-03T06:46:35;3.40;99.90
18335;DHT22;9293;49.524;10.964;2023-04-03T06:49:04;3.50;99.90
18335;DHT22;9293;49.524;10.964;2023-04-03T06:51:35;3.60;99.90
18335;DHT22;9293;49.524;10.964;2023-04-03T06:54:04;3.60;99.90
18335;DHT22;9293;49.524;10.964;2023-04-03T06:56:34;3.50;99.90
18335;DHT22;9293;49.524;10.964;2023-04-03T06:59:03;3.50;99.90
18335;DHT22;9293;49.524;10.964;2023-04-03T07:01:31;3.70;99.90
18335;DHT22;9293;49.524;10.964;2023-04-03T07:03:59;3.70;99.90
18335;DHT22;9293;49.524;10.964;2023-04-03T07:06:28;3.60;99.90
18335;DHT22;9293;49.524;10.964;2023-04-03T07:08:56;3.60;99.90
18335;DHT22;9293;49.524;10.964;2023-04-03T07:11:24;3.70;99.90
18335;DHT22;9293;49.524;10.964;2023-04-03T07:13:52;3.80;99.90
18335;DHT22;9293;49.524;10.964;2023-04-03T07:16:21;3.90;99.90
18335;DHT22;9293;49.524;10.964;2023-04-03T07:18:49;4.00;99.90
18335;DHT22;9293;49.524;10.964;2023-04-03T07:21:17;4.10;99.90
18335;DHT22;9293;49.524;10.964;2023-04-03T07:23:45;4.10;99.90
18335;DHT22;9293;49.524;10.964;2023-04-03T07:26:13;4.00;99.90
18335;DHT22;9293;49.524;10.964;2023-04-03T07:28:41;4.10;99.90
18335;DHT22;9293;49.524;10.964;2023-04-03T07:31:12;4.20;99.90
18335;DHT22;9293;49.524;10.964;2023-04-03T07:33:44;4.20;99.90
18335;DHT22;9293;49.524;10.964;2023-04-03T07:36:14;4.20;99.90
18335;DHT22;9293;49.524;10.964;2023-04-03T07:38:45;4.20;99.90
18335;DHT22;9293;49.524;10.964;2023-04-03T07:41:17;4.30;99.90
18335;DHT22;9293;49.524;10.964;2023-04-03T07:43:46;4.40;99.90
18335;DHT22;9293;49.524;10.964;2023-04-03T07:46:15;4.60;99.90
18335;DHT22;9293;49.524;10.964;2023-04-03T07:48:43;4.70;99.90
18335;DHT22;9293;49.524;10.964;2023-04-03T07:51:11;4.70;99.90
18335;DHT22;9293;49.524;10.964;2023-04-03T07:53:39;4.90;99.90
18335;DHT22;9293;49.524;10.964;2023-04-03T07:56:08;4.90;99.90
18335;DHT22;9293;49.524;10.964;2023-04-03T07:58:36;5.00;99.90
18335;DHT22;9293;49.524;10.964;2023-04-03T08:01:04;5.20;99.90
18335;DHT22;9293;49.524;10.964;2023-04-03T08:03:32;5.30;99.90
18335;DHT22;9293;49.524;10.964;2023-04-03T08:06:02;5.50;99.90
18335;DHT22;9293;49.524;10.964;2023-04-03T08:08:33;5.70;99.90
18335;DHT22;9293;49.524;10.964;2023-04-03T08:11:01;5.70;99.90
18335;DHT22;9293;49.524;10.964;2023-04-03T08:13:30;5.60;99.90
18335;DHT22;9293;49.524;10.964;2023-04-03T08:16:06;5.50;99.90
18335;DHT22;9293;49.524;10.964;2023-04-03T08:18:34;5.30;99.90
18335;DHT22;9293;49.524;10.964;2023-04-03T08:21:05;5.30;99.90
18335;DHT22;9293;49.524;10.964;2023-04-03T08:23:33;5.60;99.90
18335;DHT22;9293;49.524;10.964;2023-04-03T08:26:05;5.80;99.90
18335;DHT22;9293;49.524;10.964;2023-04-03T08:28:34;6.10;99.90
18335;DHT22;9293;49.524;10.964;2023-04-03T08:31:06;6.70;99.90
18335;DHT22;9293;49.524;10.964;2023-04-03T08:33:34;7.20;99.90
18335;DHT22;9293;49.524;10.964;2023-04-03T08:36:04;6.70;99.90
18335;DHT22;9293;49.524;10.964;2023-04-03T08:38:33;6.60;99.90
18335;DHT22;9293;49.524;10.964;2023-04-03T08:41:10;7.00;99.90
18335;DHT22;9293;49.524;10.964;2023-04-03T08:46:13;8.10;99.90
18335;DHT22;9293;49.524;10.964;2023-04-03T08:48:43;8.70;99.90
18335;DHT22;9293;49.524;10.964;2023-04-03T08:51:15;9.20;99.90
18335;DHT22;9293;49.524;10.964;2023-04-03T08:53:48;8.40;99.90
18335;DHT22;9293;49.524;10.964;2023-04-03T08:56:19;7.90;99.90
18335;DHT22;9293;49.524;10.964;2023-04-03T08:59:35;7.40;99.90
18335;DHT22;9293;49.524;10.964;2023-04-03T09:01:37;7.10;99.90
18335;DHT22;9293;49.524;10.964;2023-04-03T09:04:13;7.10;99.90
18335;DHT22;9293;49.524;10.964;2023-04-03T09:06:43;7.40;99.90
18335;DHT22;9293;49.524;10.964;2023-04-03T09:17:49;8.90;99.90
18335;DHT22;9293;49.524;10.964;2023-04-03T09:22:33;8.30;99.90
18335;DHT22;9293;49.524;10.964;2023-04-03T09:25:17;7.90;99.90
18335;DHT22;9293;49.524;10.964;2023-04-03T09:27:49;7.80;99.90
18335;DHT22;9293;49.524;10.964;2023-04-03T09:30:23;7.90;99.90
18335;DHT22;9293;49.524;10.964;2023-04-03T09:32:52;7.90;99.90
18335;DHT22;9293;49.524;10.964;2023-04-03T09:37:59;9.00;99.90
18335;DHT22;9293;49.524;10.964;2023-04-03T09:43:26;8.60;99.90
18335;DHT22;9293;49.524;10.964;2023-04-03T09:45:56;8.00;99.90
18335;DHT22;9293;49.524;10.964;2023-04-03T09:48:24;7.60;99.90
18335;DHT22;9293;49.524;10.964;2023-04-03T09:50:54;7.70;99.90
18335;DHT22;9293;49.524;10.964;2023-04-03T09:56:05;8.00;99.90
18335;DHT22;9293;49.524;10.964;2023-04-03T09:58:47;7.70;99.90
18335;DHT22;9293;49.524;10.964;2023-04-03T10:01:27;7.60;99.90
18335;DHT22;9293;49.524;10.964;2023-04-03T10:06:54;7.50;99.90
18335;DHT22;9293;49.524;10.964;2023-04-03T10:09:23;7.60;99.90
18335;DHT22;9293;49.524;10.964;2023-04-03T10:12:05;7.90;99.90
18335;DHT22;9293;49.524;10.964;2023-04-03T10:14:35;8.50;99.90
18335;DHT22;9293;49.524;10.964;2023-04-03T10:17:09;8.60;99.90
18335;DHT22;9293;49.524;10.964;2023-04-03T10:19:58;8.70;99.90
18335;DHT22;9293;49.524;10.964;2023-04-03T10:27:36;7.70;99.90
18335;DHT22;9293;49.524;10.964;2023-04-03T10:33:11;7.50;99.90
18335;DHT22;9293;49.524;10.964;2023-04-03T10:38:37;7.40;99.90
18335;DHT22;9293;49.524;10.964;2023-04-03T10:46:27;8.00;99.90
18335;DHT22;9293;49.524;10.964;2023-04-03T10:49:10;7.80;99.90
18335;DHT22;9293;49.524;10.964;2023-04-03T10:51:43;7.90;99.90
18335;DHT22;9293;49.524;10.964;2023-04-03T10:56:53;8.70;99.90
18335;DHT22;9293;49.524;10.964;2023-04-03T10:59:55;9.30;99.90
18335;DHT22;9293;49.524;10.964;2023-04-03T11:02:26;9.00;99.90
18335;DHT22;9293;49.524;10.964;2023-04-03T11:07:37;8.60;99.90
18335;DHT22;9293;49.524;10.964;2023-04-03T11:10:10;8.90;99.90
18335;DHT22;9293;49.524;10.964;2023-04-03T11:12:46;8.80;99.90
18335;DHT22;9293;49.524;10.964;2023-04-03T11:15:16;8.20;99.90
18335;DHT22;9293;49.524;10.964;2023-04-03T11:17:54;7.90;99.90
18335;DHT22;9293;49.524;10.964;2023-04-03T11:20:27;7.80;99.90
18335;DHT22;9293;49.524;10.964;2023-04-03T11:23:04;7.90;99.90
18335;DHT22;9293;49.524;10.964;2023-04-03T11:25:34;7.80;99.90
18335;DHT22;9293;49.524;10.964;2023-04-03T11:28:04;7.60;99.90
18335;DHT22;9293;49.524;10.964;2023-04-03T11:35:58;8.50;99.90
18335;DHT22;9293;49.524;10.964;2023-04-03T11:38:36;9.40;99.90
18335;DHT22;9293;49.524;10.964;2023-04-03T11:41:07;9.90;99.90
18335;DHT22;9293;49.524;10.964;2023-04-03T11:44:05;9.50;99.90
18335;DHT22;9293;49.524;10.964;2023-04-03T11:52:02;10.20;99.90
18335;DHT22;9293;49.524;10.964;2023-04-03T11:57:42;10.80;99.90
18335;DHT22;9293;49.524;10.964;2023-04-03T12:02:57;11.00;99.90
18335;DHT22;9293;49.524;10.964;2023-04-03T12:05:27;11.40;99.90
18335;DHT22;9293;49.524;10.964;2023-04-03T12:13:41;10.20;99.90
18335;DHT22;9293;49.524;10.964;2023-04-03T12:16:20;10.10;99.90
18335;DHT22;9293;49.524;10.964;2023-04-03T12:26:27;10.00;99.90
18335;DHT22;9293;49.524;10.964;2023-04-03T12:29:23;10.00;99.90
18335;DHT22;9293;49.524;10.964;2023-04-03T12:34:26;10.70;99.90
18335;DHT22;9293;49.524;10.964;2023-04-03T12:47:49;9.30;99.90
18335;DHT22;9293;49.524;10.964;2023-04-03T12:52:54;10.20;99.90
18335;DHT22;9293;49.524;10.964;2023-04-03T12:55:24;10.00;99.90
18335;DHT22;9293;49.524;10.964;2023-04-03T12:57:52;9.30;99.90
18335;DHT22;9293;49.524;10.964;2023-04-03T13:00:31;9.40;99.90
18335;DHT22;9293;49.524;10.964;2023-04-03T13:03:01;9.80;99.90
18335;DHT22;9293;49.524;10.964;2023-04-03T13:05:31;9.70;99.90
18335;DHT22;9293;49.524;10.964;2023-04-03T13:08:04;10.30;99.90
18335;DHT22;9293;49.524;10.964;2023-04-03T13:10:32;10.70;99.90
18335;DHT22;9293;49.524;10.964;2023-04-03T13:13:14;10.70;99.90
18335;DHT22;9293;49.524;10.964;2023-04-03T13:15:47;10.20;99.90
18335;DHT22;9293;49.524;10.964;2023-04-03T13:18:34;9.60;99.90
18335;DHT22;9293;49.524;10.964;2023-04-03T13:21:06;9.50;99.90
18335;DHT22;9293;49.524;10.964;2023-04-03T13:23:36;10.10;99.90
18335;DHT22;9293;49.524;10.964;2023-04-03T13:26:06;10.90;99.90
18335;DHT22;9293;49.524;10.964;2023-04-03T13:28:34;11.50;99.90
18335;DHT22;9293;49.524;10.964;2023-04-03T13:33:32;10.50;99.90
18335;DHT22;9293;49.524;10.964;2023-04-03T13:36:05;9.70;99.90
18335;DHT22;9293;49.524;10.964;2023-04-03T13:38:34;9.30;99.90
18335;DHT22;9293;49.524;10.964;2023-04-03T13:41:23;9.60;99.90
18335;DHT22;9293;49.524;10.964;2023-04-03T13:43:54;10.10;99.90
18335;DHT22;9293;49.524;10.964;2023-04-03T13:46:37;10.40;99.90
18335;DHT22;9293;49.524;10.964;2023-04-03T13:49:17;10.50;99.90
18335;DHT22;9293;49.524;10.964;2023-04-03T13:51:45;10.70;99.90
18335;DHT22;9293;49.524;10.964;2023-04-03T13:54:33;11.10;99.90
18335;DHT22;9293;49.524;10.964;2023-04-03T13:57:02;11.00;99.90
18335;DHT22;9293;49.524;10.964;2023-04-03T13:59:31;11.00;99.90
18335;DHT22;9293;49.524;10.964;2023-04-03T14:07:12;9.60;99.90
18335;DHT22;9293;49.524;10.964;2023-04-03T14:09:40;9.70;99.90
18335;DHT22;9293;49.524;10.964;2023-04-03T14:12:12;9.60;99.90
18335;DHT22;9293;49.524;10.964;2023-04-03T14:14:57;9.80;99.90
18335;DHT22;9293;49.524;10.964;2023-04-03T14:17:26;10.20;99.90
18335;DHT22;9293;49.524;10.964;2023-04-03T14:19:55;9.80;99.90
18335;DHT22;9293;49.524;10.964;2023-04-03T14:22:29;9.50;99.90
18335;DHT22;9293;49.524;10.964;2023-04-03T14:25:02;9.10;99.90
18335;DHT22;9293;49.524;10.964;2023-04-03T14:27:36;9.10;99.90
18335;DHT22;9293;49.524;10.964;2023-04-03T14:30:06;9.30;99.90
18335;DHT22;9293;49.524;10.964;2023-04-03T14:32:34;9.30;99.90
18335;DHT22;9293;49.524;10.964;2023-04-03T14:35:02;9.20;99.90
18335;DHT22;9293;49.524;10.964;2023-04-03T14:37:31;8.90;99.90
18335;DHT22;9293;49.524;10.964;2023-04-03T14:40:03;9.00;99.90
18335;DHT22;9293;49.524;10.964;2023-04-03T14:42:40;9.50;99.90
18335;DHT22;9293;49.524;10.964;2023-04-03T14:45:10;9.60;99.90
18335;DHT22;9293;49.524;10.964;2023-04-03T14:47:41;9.40;99.90
18335;DHT22;9293;49.524;10.964;2023-04-03T14:50:14;9.40;99.40
18335;DHT22;9293;49.524;10.964;2023-04-03T14:52:43;9.00;99.90
18335;DHT22;9293;49.524;10.964;2023-04-03T14:55:12;8.90;99.90
18335;DHT22;9293;49.524;10.964;2023-04-03T14:57:40;8.90;99.90
18335;DHT22;9293;49.524;10.964;2023-04-03T15:00:16;8.80;99.90
18335;DHT22;9293;49.524;10.964;2023-04-03T15:02:44;8.70;99.90
18335;DHT22;9293;49.524;10.964;2023-04-03T15:05:13;8.70;99.90
18335;DHT22;9293;49.524;10.964;2023-04-03T15:07:43;8.50;99.90
18335;DHT22;9293;49.524;10.964;2023-04-03T15:12:43;8.10;99.90
18335;DHT22;9293;49.524;10.964;2023-04-03T15:15:12;7.90;99.90
18335;DHT22;9293;49.524;10.964;2023-04-03T15:17:41;8.00;99.90
18335;DHT22;9293;49.524;10.964;2023-04-03T15:20:11;8.30;99.90
18335;DHT22;9293;49.524;10.964;2023-04-03T15:22:40;8.60;99.90
18335;DHT22;9293;49.524;10.964;2023-04-03T15:25:08;8.70;99.90
18335;DHT22;9293;49.524;10.964;2023-04-03T15:27:36;8.70;99.90
18335;DHT22;9293;49.524;10.964;2023-04-03T15:30:06;8.50;99.90
18335;DHT22;9293;49.524;10.964;2023-04-03T15:32:35;8.30;99.90
18335;DHT22;9293;49.524;10.964;2023-04-03T15:35:03;8.60;99.90
18335;DHT22;9293;49.524;10.964;2023-04-03T15:37:31;8.80;99.90
18335;DHT22;9293;49.524;10.964;2023-04-03T15:39:59;8.60;99.90
18335;DHT22;9293;49.524;10.964;2023-04-03T15:42:28;8.30;99.90
18335;DHT22;9293;49.524;10.964;2023-04-03T15:44:56;8.20;99.90
18335;DHT22;9293;49.524;10.964;2023-04-03T15:47:24;8.00;99.90
18335;DHT22;9293;49.524;10.964;2023-04-03T15:49:53;7.80;99.90
18335;DHT22;9293;49.524;10.964;2023-04-03T15:52:25;7.70;99.90
18335;DHT22;9293;49.524;10.964;2023-04-03T15:54:53;7.50;99.90
18335;DHT22;9293;49.524;10.964;2023-04-03T15:57:24;7.50;99.90
18335;DHT22;9293;49.524;10.964;2023-04-03T15:59:54;7.60;99.90
18335;DHT22;9293;49.524;10.964;2023-04-03T16:02:25;7.70;99.90
18335;DHT22;9293;49.524;10.964;2023-04-03T16:04:55;7.70;99.90
18335;DHT22;9293;49.524;10.964;2023-04-03T16:07:24;7.70;99.90
18335;DHT22;9293;49.524;10.964;2023-04-03T16:09:53;7.60;99.90
18335;DHT22;9293;49.524;10.964;2023-04-03T16:12:21;7.40;99.90
18335;DHT22;9293;49.524;10.964;2023-04-03T16:14:49;7.40;99.90
18335;DHT22;9293;49.524;10.964;2023-04-03T16:17:17;7.40;99.90
18335;DHT22;9293;49.524;10.964;2023-04-03T16:19:46;7.20;99.90
18335;DHT22;9293;49.524;10.964;2023-04-03T16:22:16;7.20;99.90
18335;DHT22;9293;49.524;10.964;2023-04-03T16:24:45;7.10;99.90
18335;DHT22;9293;49.524;10.964;2023-04-03T16:27:13;7.00;99.90
18335;DHT22;9293;49.524;10.964;2023-04-03T16:29:41;6.90;99.90
18335;DHT22;9293;49.524;10.964;2023-04-03T16:32:09;6.80;99.90
18335;DHT22;9293;49.524;10.964;2023-04-03T16:34:37;6.70;99.90
18335;DHT22;9293;49.524;10.964;2023-04-03T16:37:06;6.60;99.90
18335;DHT22;9293;49.524;10.964;2023-04-03T16:39:36;6.60;99.90
18335;DHT22;9293;49.524;10.964;2023-04-03T16:42:04;6.50;99.90
18335;DHT22;9293;49.524;10.964;2023-04-03T16:44:39;6.40;99.90
18335;DHT22;9293;49.524;10.964;2023-04-03T16:47:08;6.40;99.90
18335;DHT22;9293;49.524;10.964;2023-04-03T16:49:36;6.30;99.90
18335;DHT22;9293;49.524;10.964;2023-04-03T16:52:04;6.20;99.90
18335;DHT22;9293;49.524;10.964;2023-04-03T16:54:33;6.20;99.90
18335;DHT22;9293;49.524;10.964;2023-04-03T16:57:01;6.10;99.90
18335;DHT22;9293;49.524;10.964;2023-04-03T16:59:29;6.10;99.90
18335;DHT22;9293;49.524;10.964;2023-04-03T17:01:57;6.00;99.90
18335;DHT22;9293;49.524;10.964;2023-04-03T17:04:25;6.00;99.90
18335;DHT22;9293;49.524;10.964;2023-04-03T17:06:54;5.90;99.90
18335;DHT22;9293;49.524;10.964;2023-04-03T17:09:22;5.80;99.90
18335;DHT22;9293;49.524;10.964;2023-04-03T17:11:50;5.80;99.90
18335;DHT22;9293;49.524;10.964;2023-04-03T17:14:18;5.60;99.90
18335;DHT22;9293;49.524;10.964;2023-04-03T17:16:47;5.60;99.90
18335;DHT22;9293;49.524;10.964;2023-04-03T17:19:15;5.50;99.90
18335;DHT22;9293;49.524;10.964;2023-04-03T17:21:44;5.40;99.90
18335;DHT22;9293;49.524;10.964;2023-04-03T17:24:13;5.30;99.90
18335;DHT22;9293;49.524;10.964;2023-04-03T17:26:44;5.30;99.90
18335;DHT22;9293;49.524;10.964;2023-04-03T17:29:13;5.10;99.90
18335;DHT22;9293;49.524;10.964;2023-04-03T17:31:44;5.10;99.90
18335;DHT22;9293;49.524;10.964;2023-04-03T17:34:13;5.10;99.90
18335;DHT22;9293;49.524;10.964;2023-04-03T17:36:41;5.00;99.90
18335;DHT22;9293;49.524;10.964;2023-04-03T17:39:09;4.90;99.90
18335;DHT22;9293;49.524;10.964;2023-04-03T17:41:38;4.90;99.90
18335;DHT22;9293;49.524;10.964;2023-04-03T17:44:06;4.80;99.90
18335;DHT22;9293;49.524;10.964;2023-04-03T17:46:34;4.80;99.90
18335;DHT22;9293;49.524;10.964;2023-04-03T17:49:02;4.80;99.90
18335;DHT22;9293;49.524;10.964;2023-04-03T17:51:31;4.70;99.90
18335;DHT22;9293;49.524;10.964;2023-04-03T17:54:01;4.70;99.90
18335;DHT22;9293;49.524;10.964;2023-04-03T17:56:29;4.60;99.90